createdAt,value
2018-01-30T00:00:59.712Z,101436.41
2018-01-30T00:03:27.200Z,101435.72
2018-01-30T00:05:54.700Z,101439.10
2018-01-30T00:08:22.733Z,101444.70
2018-01-30T00:10:50.194Z,101441.80
2018-01-30T00:13:17.629Z,101447.70
2018-01-30T00:15:45.073Z,101457.36
2018-01-30T00:18:12.505Z,101461.27
2018-01-30T00:20:40.006Z,101464.74
2018-01-30T00:23:07.579Z,101459.98
2018-01-30T00:25:35.081Z,101464.23
2018-01-30T00:28:02.861Z,101475.29
2018-01-30T00:30:30.495Z,101482.45
2018-01-30T00:32:57.938Z,101484.69
2018-01-30T00:35:25.561Z,101485.69
2018-01-30T00:37:53.358Z,101487.41
2018-01-30T00:40:21.473Z,101479.78
2018-01-30T00:42:48.969Z,101489.61
2018-01-30T00:45:16.417Z,101488.88
2018-01-30T00:47:43.878Z,101491.86
2018-01-30T00:50:11.325Z,101493.11
2018-01-30T00:52:38.811Z,101495.98
2018-01-30T00:55:06.243Z,101493.48
2018-01-30T00:57:33.685Z,101496.35
2018-01-30T01:00:01.125Z,101500.94
2018-01-30T01:02:28.569Z,101503.22
2018-01-30T01:04:56.032Z,101495.17
2018-01-30T01:07:23.480Z,101501.98
2018-01-30T01:09:50.942Z,101509.97
2018-01-30T01:12:18.411Z,101513.05
2018-01-30T01:14:45.874Z,101525.39
2018-01-30T01:17:13.325Z,101532.94
2018-01-30T01:19:40.788Z,101529.76
2018-01-30T01:22:08.252Z,101536.62
2018-01-30T01:24:35.717Z,101540.61
2018-01-30T01:27:03.157Z,101545.14
2018-01-30T01:29:31.195Z,101544.14
2018-01-30T01:31:58.725Z,101559.83
2018-01-30T01:34:26.160Z,101556.93
2018-01-30T01:36:53.617Z,101569.67
2018-01-30T01:39:21.127Z,101570.05
2018-01-30T01:41:48.577Z,101577.88
2018-01-30T01:44:16.028Z,101581.51
2018-01-30T01:46:43.445Z,101577.43
2018-01-30T01:49:10.891Z,101572.30
2018-01-30T01:51:38.309Z,101566.61
2018-01-30T01:54:05.759Z,101570.13
2018-01-30T01:56:33.189Z,101570.27
2018-01-30T01:59:00.667Z,101560.82
2018-01-30T02:01:28.132Z,101568.30
2018-01-30T02:03:55.580Z,101573.48
2018-01-30T02:06:23.891Z,101581.98
2018-01-30T02:08:52.341Z,101576.01
2018-01-30T02:11:19.773Z,101585.09
2018-01-30T02:13:47.280Z,101580.66
2018-01-30T02:16:15.003Z,101582.16
2018-01-30T02:18:42.485Z,101584.19
2018-01-30T02:21:09.893Z,101586.34
2018-01-30T02:23:37.338Z,101582.65
2018-01-30T02:26:04.787Z,101587.48
2018-01-30T02:28:32.234Z,101591.41
2018-01-30T02:30:59.693Z,101590.28
2018-01-30T02:33:27.150Z,101583.17
2018-01-30T02:35:54.735Z,101583.92
2018-01-30T02:38:22.937Z,101584.57
2018-01-30T02:40:52.093Z,101583.48
2018-01-30T02:43:19.528Z,101589.98
2018-01-30T02:45:46.970Z,101596.68
2018-01-30T02:48:14.451Z,101596.64
2018-01-30T02:50:41.932Z,101601.12
2018-01-30T02:53:09.365Z,101609.05
2018-01-30T02:55:36.817Z,101605.52
2018-01-30T02:58:04.251Z,101592.80
2018-01-30T03:00:31.727Z,101590.47
2018-01-30T03:02:59.150Z,101587.98
2018-01-30T03:05:26.607Z,101587.02
2018-01-30T03:07:54.037Z,101586.41
2018-01-30T03:10:21.481Z,101583.92
2018-01-30T03:12:48.911Z,101594.47
2018-01-30T03:15:16.369Z,101586.98
2018-01-30T03:17:43.796Z,101588.52
2018-01-30T03:20:11.245Z,101580.95
2018-01-30T03:22:38.729Z,101590.09
2018-01-30T03:25:06.160Z,101585.36
2018-01-30T03:27:33.605Z,101585.16
2018-01-30T03:30:01.035Z,101587.81
2018-01-30T03:32:28.477Z,101586.28
2018-01-30T03:34:55.917Z,101574.88
2018-01-30T03:37:23.793Z,101567.28
2018-01-30T03:39:51.282Z,101569.63
2018-01-30T03:42:18.737Z,101570.51
2018-01-30T03:44:46.170Z,101582.13
2018-01-30T03:47:13.610Z,101581.91
2018-01-30T03:49:41.045Z,101585.76
2018-01-30T03:52:08.477Z,101585.06
2018-01-30T03:54:35.921Z,101588.60
2018-01-30T03:57:03.357Z,101580.56
2018-01-30T03:59:30.793Z,101578.02
2018-01-30T04:01:59.139Z,101575.48
2018-01-30T04:04:26.558Z,101583.61
2018-01-30T04:06:53.997Z,101586.63
2018-01-30T04:09:21.493Z,101582.61
2018-01-30T04:11:48.958Z,101592.05
2018-01-30T04:14:16.433Z,101592.34
2018-01-30T04:16:43.890Z,101591.30
2018-01-30T04:19:11.354Z,101584.92
2018-01-30T04:21:38.813Z,101577.41
2018-01-30T04:24:06.286Z,101588.16
2018-01-30T04:26:33.745Z,101587.16
2018-01-30T04:29:01.204Z,101593.48
2018-01-30T04:31:28.637Z,101596.48
2018-01-30T04:33:56.086Z,101601.93
2018-01-30T04:36:24.051Z,101606.41
2018-01-30T04:38:51.639Z,101605.67
2018-01-30T04:41:19.096Z,101608.96
2018-01-30T04:43:46.633Z,101600.73
2018-01-30T04:46:14.089Z,101610.14
2018-01-30T04:48:41.535Z,101610.94
2018-01-30T04:51:08.979Z,101607.56
2018-01-30T04:53:36.447Z,101610.03
2018-01-30T04:56:03.916Z,101607.38
2018-01-30T04:58:31.347Z,101612.88
2018-01-30T05:00:58.786Z,101615.98
2018-01-30T05:03:26.217Z,101610.30
2018-01-30T05:05:54.242Z,101612.97
2018-01-30T05:08:21.669Z,101622.64
2018-01-30T05:10:49.115Z,101621.50
2018-01-30T05:13:16.534Z,101614.48
2018-01-30T05:15:43.990Z,101615.23
2018-01-30T05:18:11.417Z,101627.13
2018-01-30T05:20:38.855Z,101627.57
2018-01-30T05:23:06.300Z,101631.42
2018-01-30T05:25:33.749Z,101636.30
2018-01-30T05:28:01.197Z,101646.92
2018-01-30T05:30:29.639Z,101648.46
2018-01-30T05:32:57.103Z,101649.96
2018-01-30T05:35:24.526Z,101648.67
2018-01-30T05:37:51.960Z,101651.98
2018-01-30T05:40:19.394Z,101648.39
2018-01-30T05:42:46.828Z,101646.81
2018-01-30T05:45:14.269Z,101648.44
2018-01-30T05:47:41.700Z,101651.91
2018-01-30T05:50:09.168Z,101647.11
2018-01-30T05:52:36.616Z,101650.97
2018-01-30T05:55:04.061Z,101660.92
2018-01-30T05:57:31.513Z,101667.70
2018-01-30T05:59:58.951Z,101667.91
2018-01-30T06:02:26.781Z,101677.45
2018-01-30T06:04:54.659Z,101678.62
2018-01-30T06:07:22.108Z,101676.80
2018-01-30T06:09:49.545Z,101676.00
2018-01-30T06:12:16.977Z,101672.55
2018-01-30T06:14:44.434Z,101677.70
2018-01-30T06:17:11.869Z,101679.97
2018-01-30T06:19:39.369Z,101671.52
2018-01-30T06:22:06.790Z,101667.14
2018-01-30T06:24:34.242Z,101668.84
2018-01-30T06:27:01.679Z,101659.36
2018-01-30T06:29:29.238Z,101657.52
2018-01-30T06:31:56.648Z,101665.88
2018-01-30T06:34:24.882Z,101667.86
2018-01-30T06:36:52.299Z,101675.15
2018-01-30T06:39:19.860Z,101676.34
2018-01-30T06:41:47.345Z,101679.21
2018-01-30T06:44:14.781Z,101674.58
2018-01-30T06:46:42.209Z,101673.06
2018-01-30T06:49:09.665Z,101672.34
2018-01-30T06:51:37.105Z,101668.93
2018-01-30T06:54:04.540Z,101669.66
2018-01-30T06:56:31.961Z,101668.95
2018-01-30T06:58:59.421Z,101672.56
2018-01-30T07:01:26.853Z,101664.17
2018-01-30T07:03:56.669Z,101676.36
2018-01-30T07:06:26.055Z,101680.13
2018-01-30T07:08:53.597Z,101688.73
2018-01-30T07:11:21.115Z,101692.64
2018-01-30T07:13:48.548Z,101694.69
2018-01-30T07:16:16.005Z,101694.95
2018-01-30T07:18:43.456Z,101699.92
2018-01-30T07:21:10.914Z,101696.30
2018-01-30T07:23:38.991Z,101701.28
2018-01-30T07:26:06.639Z,101704.99
2018-01-30T07:28:34.094Z,101712.50
2018-01-30T07:31:01.536Z,101720.07
2018-01-30T07:33:29.055Z,101723.84
2018-01-30T07:35:56.488Z,101720.08
2018-01-30T07:38:24.203Z,101723.07
2018-01-30T07:40:53.306Z,101721.23
2018-01-30T07:43:20.902Z,101722.06
2018-01-30T07:45:48.359Z,101724.67
2018-01-30T07:48:15.772Z,101725.06
2018-01-30T07:50:44.618Z,101728.98
2018-01-30T07:53:12.058Z,101739.30
2018-01-30T07:55:39.502Z,101729.28
2018-01-30T07:58:06.970Z,101725.21
2018-01-30T08:00:34.414Z,101723.47
2018-01-30T08:03:01.938Z,101727.45
2018-01-30T08:05:29.381Z,101724.47
2018-01-30T08:07:56.814Z,101725.55
2018-01-30T08:10:25.252Z,101725.45
2018-01-30T08:12:52.705Z,101725.11
2018-01-30T08:15:20.205Z,101725.40
2018-01-30T08:17:47.648Z,101723.45
2018-01-30T08:20:15.059Z,101711.60
2018-01-30T08:22:42.498Z,101701.08
2018-01-30T08:25:09.940Z,101702.65
2018-01-30T08:27:37.410Z,101700.26
2018-01-30T08:30:04.864Z,101695.32
2018-01-30T08:32:32.384Z,101693.86
2018-01-30T08:34:59.825Z,101695.52
2018-01-30T08:37:27.240Z,101691.70
2018-01-30T08:39:55.412Z,101689.72
2018-01-30T08:42:22.945Z,101689.19
2018-01-30T08:44:50.394Z,101688.51
2018-01-30T08:47:17.847Z,101688.51
2018-01-30T08:49:45.295Z,101682.16
2018-01-30T08:52:12.721Z,101684.18
2018-01-30T08:54:40.157Z,101688.89
2018-01-30T08:57:07.592Z,101701.50
2018-01-30T08:59:35.038Z,101708.67
2018-01-30T09:02:02.467Z,101697.51
2018-01-30T09:04:29.922Z,101702.80
2018-01-30T09:06:57.421Z,101700.12
2018-01-30T09:09:26.550Z,101694.24
2018-01-30T09:11:54.170Z,101700.87
2018-01-30T09:14:21.681Z,101691.15
2018-01-30T09:16:49.189Z,101694.41
2018-01-30T09:19:16.744Z,101701.91
2018-01-30T09:21:44.218Z,101703.06
2018-01-30T09:24:11.693Z,101699.32
2018-01-30T09:26:39.307Z,101703.75
2018-01-30T09:29:06.904Z,101700.32
2018-01-30T09:31:34.338Z,101700.14
2018-01-30T09:34:01.872Z,101702.76
2018-01-30T09:36:29.454Z,101704.63
2018-01-30T09:38:56.922Z,101706.84
2018-01-30T09:41:24.404Z,101704.78
2018-01-30T09:43:51.820Z,101704.71
2018-01-30T09:46:19.364Z,101699.03
2018-01-30T09:48:46.870Z,101696.77
2018-01-30T09:51:14.341Z,101696.89
2018-01-30T09:53:41.783Z,101697.97
2018-01-30T09:56:09.341Z,101687.50
2018-01-30T09:58:37.921Z,101692.20
2018-01-30T10:01:05.413Z,101688.97
2018-01-30T10:03:33.201Z,101692.64
2018-01-30T10:06:00.650Z,101693.77
2018-01-30T10:08:29.093Z,101691.59
2018-01-30T10:10:56.555Z,101693.97
2018-01-30T10:13:24.033Z,101693.06
2018-01-30T10:15:51.567Z,101694.26
2018-01-30T10:18:18.985Z,101690.16
2018-01-30T10:20:46.410Z,101689.23
2018-01-30T10:23:13.849Z,101679.29
2018-01-30T10:25:42.313Z,101682.81
2018-01-30T10:28:09.752Z,101685.66
2018-01-30T10:30:37.195Z,101685.83
2018-01-30T10:33:04.636Z,101695.17
2018-01-30T10:35:33.173Z,101682.30
2018-01-30T10:38:00.654Z,101685.52
2018-01-30T10:40:28.615Z,101681.41
2018-01-30T10:42:56.064Z,101678.77
2018-01-30T10:45:23.521Z,101668.58
2018-01-30T10:47:51.335Z,101669.02
2018-01-30T10:50:18.838Z,101673.50
2018-01-30T10:52:46.280Z,101666.98
2018-01-30T10:55:13.798Z,101671.16
2018-01-30T10:57:41.316Z,101664.34
2018-01-30T11:00:09.124Z,101671.02
2018-01-30T11:02:36.551Z,101663.70
2018-01-30T11:05:03.994Z,101657.66
2018-01-30T11:07:31.493Z,101662.44
2018-01-30T11:09:58.928Z,101648.04
2018-01-30T11:12:26.351Z,101649.86
2018-01-30T11:14:53.809Z,101646.45
2018-01-30T11:17:21.254Z,101643.17
2018-01-30T11:19:48.758Z,101646.09
2018-01-30T11:22:17.159Z,101636.59
2018-01-30T11:24:44.620Z,101639.02
2018-01-30T11:27:12.050Z,101633.66
2018-01-30T11:29:40.903Z,101631.91
2018-01-30T11:32:08.352Z,101626.84
2018-01-30T11:34:35.800Z,101619.86
2018-01-30T11:37:03.242Z,101617.52
2018-01-30T11:39:30.822Z,101618.13
2018-01-30T11:41:58.265Z,101616.14
2018-01-30T11:44:26.410Z,101614.40
2018-01-30T11:46:53.860Z,101609.41
2018-01-30T11:49:21.273Z,101601.45
2018-01-30T11:51:48.818Z,101591.70
2018-01-30T11:54:16.267Z,101588.55
2018-01-30T11:56:43.705Z,101581.08
2018-01-30T11:59:11.160Z,101584.70
2018-01-30T12:01:38.621Z,101583.98
2018-01-30T12:04:06.070Z,101568.67
2018-01-30T12:06:33.532Z,101567.14
2018-01-30T12:09:00.968Z,101556.49
2018-01-30T12:11:28.500Z,101535.17
2018-01-30T12:13:55.945Z,101535.17
2018-01-30T12:16:23.385Z,101526.30
2018-01-30T12:18:50.805Z,101524.78
2018-01-30T12:21:18.263Z,101513.02
2018-01-30T12:23:45.733Z,101510.14
2018-01-30T12:26:13.375Z,101514.57
2018-01-30T12:28:41.796Z,101503.97
2018-01-30T12:31:09.549Z,101497.16
2018-01-30T12:33:37.216Z,101493.75
2018-01-30T12:36:04.856Z,101499.73
2018-01-30T12:38:32.492Z,101489.83
2018-01-30T12:41:00.085Z,101475.94
2018-01-30T12:43:27.969Z,101481.27
2018-01-30T12:45:55.807Z,101469.03
2018-01-30T12:48:23.447Z,101469.80
2018-01-30T12:50:51.143Z,101467.87
2018-01-30T12:53:18.957Z,101465.59
2018-01-30T12:55:46.514Z,101459.30
2018-01-30T12:58:14.117Z,101452.73
2018-01-30T13:00:41.739Z,101444.81
2018-01-30T13:03:09.214Z,101452.29
2018-01-30T13:05:36.640Z,101438.70
2018-01-30T13:08:04.088Z,101434.25
2018-01-30T13:10:31.529Z,101450.01
2018-01-30T13:12:59.021Z,101451.02
2018-01-30T13:15:26.894Z,101442.26
2018-01-30T13:17:54.341Z,101450.48
2018-01-30T13:20:21.771Z,101439.21
2018-01-30T13:22:49.205Z,101429.03
2018-01-30T13:25:18.452Z,101436.34
2018-01-30T13:27:45.872Z,101436.26
2018-01-30T13:30:13.308Z,101424.88
2018-01-30T13:32:40.751Z,101431.59
2018-01-30T13:35:08.198Z,101430.78
2018-01-30T13:37:35.637Z,101434.41
2018-01-30T13:40:03.094Z,101430.45
2018-01-30T13:42:30.509Z,101425.47
2018-01-30T13:44:58.204Z,101431.88
2018-01-30T13:47:25.631Z,101423.92
2018-01-30T13:49:53.082Z,101423.91
2018-01-30T13:52:20.523Z,101427.26
2018-01-30T13:54:48.021Z,101424.62
2018-01-30T13:57:15.459Z,101420.92
2018-01-30T13:59:42.890Z,101409.64
2018-01-30T14:02:10.809Z,101416.44
2018-01-30T14:04:38.248Z,101410.19
2018-01-30T14:07:05.700Z,101405.86
2018-01-30T14:09:33.132Z,101396.46
2018-01-30T14:12:00.717Z,101396.09
2018-01-30T14:14:28.140Z,101392.56
2018-01-30T14:16:55.592Z,101394.39
2018-01-30T14:19:23.032Z,101397.04
2018-01-30T14:21:50.479Z,101389.49
2018-01-30T14:24:17.905Z,101399.17
2018-01-30T14:26:45.347Z,101392.01
2018-01-30T14:29:12.791Z,101392.74
2018-01-30T14:31:40.246Z,101388.89
2018-01-30T14:34:07.682Z,101384.31
2018-01-30T14:36:35.263Z,101381.16
2018-01-30T14:39:02.710Z,101377.13
2018-01-30T14:41:30.287Z,101376.41
2018-01-30T14:43:57.720Z,101378.53
2018-01-30T14:46:28.140Z,101375.61
2018-01-30T14:48:58.129Z,101374.08
2018-01-30T14:51:29.592Z,101373.73
2018-01-30T14:53:57.569Z,101372.68
2018-01-30T14:56:25.065Z,101371.82
2018-01-30T14:58:52.592Z,101370.20
2018-01-30T15:01:20.019Z,101364.08
2018-01-30T15:03:47.459Z,101369.97
2018-01-30T15:06:14.889Z,101362.03
2018-01-30T15:08:42.342Z,101374.67
2018-01-30T15:11:09.795Z,101362.55
2018-01-30T15:13:37.341Z,101363.03
2018-01-30T15:16:04.817Z,101354.12
2018-01-30T15:18:32.330Z,101354.95
2018-01-30T15:20:59.845Z,101346.32
2018-01-30T15:23:27.565Z,101346.02
2018-01-30T15:25:55.005Z,101340.22
2018-01-30T15:28:22.455Z,101340.62
2018-01-30T15:30:49.873Z,101339.20
2018-01-30T15:33:17.403Z,101338.41
2018-01-30T15:35:44.825Z,101333.47
2018-01-30T15:38:12.360Z,101334.03
2018-01-30T15:40:39.816Z,101331.08
2018-01-30T15:43:07.446Z,101335.69
2018-01-30T15:45:34.891Z,101335.48
2018-01-30T15:48:02.316Z,101336.19
2018-01-30T15:50:29.774Z,101329.28
2018-01-30T15:52:59.184Z,101326.45
2018-01-30T15:55:27.782Z,101319.38
2018-01-30T15:57:55.225Z,101322.09
2018-01-30T16:00:22.709Z,101323.62
2018-01-30T16:02:50.123Z,101319.34
2018-01-30T16:05:17.574Z,101310.80
2018-01-30T16:07:45.098Z,101305.49
2018-01-30T16:10:13.276Z,101312.53
2018-01-30T16:12:40.852Z,101306.05
2018-01-30T16:15:08.454Z,101310.03
2018-01-30T16:17:36.100Z,101301.12
2018-01-30T16:20:03.739Z,101292.08
2018-01-30T16:22:31.433Z,101289.80
2018-01-30T16:24:59.014Z,101289.17
2018-01-30T16:27:26.734Z,101281.64
2018-01-30T16:29:54.504Z,101278.88
2018-01-30T16:32:22.187Z,101279.55
2018-01-30T16:34:49.927Z,101276.88
2018-01-30T16:37:18.614Z,101265.19
2018-01-30T16:39:46.403Z,101275.36
2018-01-30T16:42:14.033Z,101266.98
2018-01-30T16:44:41.696Z,101272.95
2018-01-30T16:47:09.411Z,101268.70
2018-01-30T16:49:37.121Z,101263.17
2018-01-30T16:52:04.803Z,101266.52
2018-01-30T16:54:32.550Z,101260.50
2018-01-30T16:57:00.213Z,101254.95
2018-01-30T16:59:28.125Z,101253.41
2018-01-30T17:01:55.978Z,101258.84
2018-01-30T17:04:24.107Z,101251.09
2018-01-30T17:06:51.771Z,101254.84
2018-01-30T17:09:19.515Z,101247.47
2018-01-30T17:11:47.187Z,101245.73
2018-01-30T17:14:14.842Z,101246.77
2018-01-30T17:16:42.389Z,101239.20
2018-01-30T17:19:10.022Z,101236.48
2018-01-30T17:21:37.872Z,101236.92
2018-01-30T17:24:05.462Z,101237.80
2018-01-30T17:26:33.094Z,101227.55
2018-01-30T17:29:00.679Z,101233.90
2018-01-30T17:31:30.357Z,101227.88
2018-01-30T17:33:58.215Z,101223.92
2018-01-30T17:36:26.174Z,101229.00
2018-01-30T17:38:54.782Z,101233.37
2018-01-30T17:41:22.549Z,101227.45
2018-01-30T17:43:50.091Z,101223.96
2018-01-30T17:46:17.709Z,101228.89
2018-01-30T17:48:46.147Z,101213.60
2018-01-30T17:51:13.733Z,101215.24
2018-01-30T17:53:41.419Z,101202.53
2018-01-30T17:56:09.042Z,101206.86
2018-01-30T17:58:36.739Z,101201.73
2018-01-30T18:01:04.392Z,101202.46
2018-01-30T18:03:31.945Z,101200.27
2018-01-30T18:06:00.285Z,101193.01
2018-01-30T18:08:28.533Z,101197.36
2018-01-30T18:10:56.239Z,101201.95
2018-01-30T18:13:23.929Z,101190.42
2018-01-30T18:15:51.579Z,101186.99
2018-01-30T18:18:19.346Z,101186.48
2018-01-30T18:20:47.024Z,101189.06
2018-01-30T18:23:14.747Z,101187.72
2018-01-30T18:25:42.328Z,101194.61
2018-01-30T18:28:09.985Z,101193.06
2018-01-30T18:30:37.665Z,101188.14
2018-01-30T18:33:05.360Z,101185.75
2018-01-30T18:35:32.925Z,101199.58
2018-01-30T18:38:00.909Z,101197.38
2018-01-30T18:40:28.595Z,101200.67
2018-01-30T18:42:56.374Z,101195.77
2018-01-30T18:45:24.168Z,101184.97
2018-01-30T18:47:51.916Z,101182.77
2018-01-30T18:50:19.531Z,101178.31
2018-01-30T18:52:50.379Z,101179.49
2018-01-30T18:55:24.339Z,101180.88
2018-01-30T18:57:54.024Z,101176.16
2018-01-30T19:00:21.618Z,101174.13
2018-01-30T19:02:49.223Z,101172.17
2018-01-30T19:05:16.933Z,101168.03
2018-01-30T19:07:44.674Z,101160.62
2018-01-30T19:10:12.759Z,101160.12
2018-01-30T19:12:40.188Z,101162.16
2018-01-30T19:15:07.657Z,101156.59
2018-01-30T19:17:35.241Z,101159.58
2018-01-30T19:20:02.700Z,101155.07
2018-01-30T19:22:30.133Z,101156.34
2018-01-30T19:24:57.598Z,101154.86
2018-01-30T19:27:25.041Z,101153.73
2018-01-30T19:29:53.383Z,101151.70
2018-01-30T19:32:20.816Z,101148.17
2018-01-30T19:34:48.255Z,101143.77
2018-01-30T19:37:15.699Z,101138.05
2018-01-30T19:39:43.123Z,101145.23
2018-01-30T19:42:10.568Z,101138.58
2018-01-30T19:44:39.122Z,101129.49
2018-01-30T19:47:06.690Z,101126.98
2018-01-30T19:49:34.119Z,101118.77
2018-01-30T19:52:02.468Z,101108.89
2018-01-30T19:54:29.985Z,101100.56
2018-01-30T19:56:57.430Z,101098.62
2018-01-30T19:59:24.963Z,101094.73
2018-01-30T20:01:52.421Z,101094.30
2018-01-30T20:04:19.991Z,101094.75
2018-01-30T20:06:47.608Z,101086.28
2018-01-30T20:09:15.156Z,101081.13
2018-01-30T20:11:42.615Z,101081.82
2018-01-30T20:14:10.999Z,101085.73
2018-01-30T20:16:38.444Z,101073.02
2018-01-30T20:19:05.924Z,101070.23
2018-01-30T20:21:33.626Z,101066.34
2018-01-30T20:24:01.147Z,101068.88
2018-01-30T20:26:34.357Z,101069.70
2018-01-30T20:29:01.862Z,101068.04
2018-01-30T20:31:29.310Z,101072.75
2018-01-30T20:33:56.844Z,101068.52
2018-01-30T20:36:24.325Z,101068.95
2018-01-30T20:38:52.102Z,101060.80
2018-01-30T20:41:19.617Z,101058.23
2018-01-30T20:43:47.100Z,101059.39
2018-01-30T20:46:14.705Z,101054.25
2018-01-30T20:48:42.166Z,101051.76
2018-01-30T20:51:09.639Z,101048.55
2018-01-30T20:53:37.133Z,101058.25
2018-01-30T20:56:04.735Z,101048.36
2018-01-30T20:58:32.304Z,101055.71
2018-01-30T21:00:59.820Z,101056.93
2018-01-30T21:03:27.303Z,101032.09
2018-01-30T21:05:54.788Z,101031.00
2018-01-30T21:08:22.246Z,101038.78
2018-01-30T21:10:49.734Z,101034.57
2018-01-30T21:13:17.172Z,101032.33
2018-01-30T21:15:44.714Z,101034.20
2018-01-30T21:18:12.189Z,101037.06
2018-01-30T21:20:39.658Z,101037.65
2018-01-30T21:23:07.105Z,101026.47
2018-01-30T21:25:34.626Z,101021.73
2018-01-30T21:28:02.185Z,101032.13
2018-01-30T21:30:29.685Z,101031.40
2018-01-30T21:32:57.360Z,101031.05
2018-01-30T21:35:24.924Z,101024.77
2018-01-30T21:37:52.449Z,101020.09
2018-01-30T21:40:19.884Z,101028.26
2018-01-30T21:42:47.902Z,101014.91
2018-01-30T21:45:15.409Z,101019.41
2018-01-30T21:47:42.873Z,101018.47
2018-01-30T21:50:10.415Z,101026.28
2018-01-30T21:52:37.876Z,101020.84
2018-01-30T21:55:05.310Z,101008.59
2018-01-30T21:57:32.845Z,101017.36
2018-01-30T22:00:00.282Z,101016.63
2018-01-30T22:02:27.813Z,101003.28
2018-01-30T22:04:55.446Z,101003.86
2018-01-30T22:07:22.967Z,100999.81
2018-01-30T22:09:50.397Z,101001.69
2018-01-30T22:12:17.847Z,101001.39
2018-01-30T22:14:45.327Z,100990.89
2018-01-30T22:17:13.379Z,100988.00
2018-01-30T22:19:40.810Z,100996.72
2018-01-30T22:22:08.246Z,100991.44
2018-01-30T22:24:35.763Z,100982.30
2018-01-30T22:27:03.230Z,100981.34
2018-01-30T22:29:31.692Z,100975.36
2018-01-30T22:31:59.128Z,100978.41
2018-01-30T22:34:26.585Z,100976.39
2018-01-30T22:36:54.054Z,100980.83
2018-01-30T22:39:22.151Z,100970.17
2018-01-30T22:41:49.703Z,100966.94
2018-01-30T22:44:29.864Z,100971.33
2018-01-30T22:46:44.601Z,100964.14
